createdAt,value
2023-03-20T00:02:23.180Z,87.84
2023-03-20T00:04:54.686Z,87.69
2023-03-20T00:07:26.424Z,87.69
2023-03-20T00:09:57.845Z,88.12
2023-03-20T00:12:29.279Z,87.56
2023-03-20T00:15:05.185Z,87.53
2023-03-20T00:17:36.687Z,88.08
2023-03-20T00:20:14.589Z,87.60
2023-03-20T00:22:46.042Z,88.06
2023-03-20T00:25:20.410Z,88.04
2023-03-20T00:27:52.234Z,87.53
2023-03-20T00:30:29.682Z,87.56
2023-03-20T00:33:01.303Z,87.85
2023-03-20T00:35:33.403Z,87.89
2023-03-20T00:38:04.883Z,88.00
2023-03-20T00:40:36.407Z,87.73
2023-03-20T00:43:10.653Z,87.01
2023-03-20T00:45:45.461Z,87.80
2023-03-20T00:48:17.070Z,87.39
2023-03-20T00:50:49.461Z,87.90
2023-03-20T00:53:20.866Z,88.16
2023-03-20T00:55:52.241Z,87.72
2023-03-20T00:58:23.659Z,87.27
2023-03-20T01:00:55.433Z,88.26
2023-03-20T01:03:29.893Z,87.99
2023-03-20T01:06:01.224Z,87.64
2023-03-20T01:08:32.599Z,88.00
2023-03-20T01:11:04.144Z,87.73
2023-03-20T01:13:38.306Z,88.08
2023-03-20T01:16:24.855Z,88.01
2023-03-20T01:18:56.764Z,87.87
2023-03-20T01:21:28.041Z,87.64
2023-03-20T01:23:59.323Z,88.04
2023-03-20T01:26:42.308Z,87.98
2023-03-20T01:29:19.877Z,87.65
2023-03-20T01:31:52.193Z,88.05
2023-03-20T01:34:23.542Z,88.06
2023-03-20T01:36:57.927Z,88.08
2023-03-20T01:39:34.017Z,88.05
2023-03-20T01:42:06.143Z,87.77
2023-03-20T01:44:38.234Z,88.09
2023-03-20T01:47:19.093Z,88.07
2023-03-20T01:50:28.583Z,88.66
2023-03-20T01:53:30.206Z,88.23
2023-03-20T01:56:01.746Z,88.67
2023-03-20T01:58:38.814Z,88.39
2023-03-20T02:01:14.045Z,88.54
2023-03-20T02:03:50.503Z,88.79
2023-03-20T02:06:23.652Z,88.53
2023-03-20T02:08:55.245Z,88.91
2023-03-20T02:11:26.806Z,88.45
2023-03-20T02:14:00.878Z,89.22
2023-03-20T02:16:32.378Z,88.80
2023-03-20T02:19:06.224Z,89.17
2023-03-20T02:22:03.498Z,88.70
2023-03-20T02:25:03.380Z,89.07
2023-03-20T02:27:42.984Z,88.75
2023-03-20T02:30:32.923Z,88.99
2023-03-20T02:33:36.781Z,89.25
2023-03-20T02:36:32.016Z,89.21
2023-03-20T02:39:40.303Z,89.29
2023-03-20T02:42:44.346Z,89.61
2023-03-20T02:45:42.987Z,89.23
2023-03-20T02:48:26.506Z,89.34
2023-03-20T02:51:03.513Z,89.72
2023-03-20T02:53:42.893Z,89.33
2023-03-20T02:56:57.286Z,89.99
2023-03-20T02:59:46.382Z,89.93
2023-03-20T03:02:32.269Z,89.88
2023-03-20T03:05:12.563Z,89.64
2023-03-20T03:07:48.007Z,89.85
2023-03-20T03:10:36.815Z,90.10
2023-03-20T03:13:15.182Z,90.22
2023-03-20T03:15:51.033Z,90.11
2023-03-20T03:18:26.380Z,90.84
2023-03-20T03:21:01.076Z,90.04
2023-03-20T03:23:37.309Z,90.45
2023-03-20T03:26:10.538Z,90.39
2023-03-20T03:28:48.450Z,90.17
2023-03-20T03:31:21.957Z,90.21
2023-03-20T03:33:57.117Z,90.61
2023-03-20T03:36:51.571Z,90.94
2023-03-20T03:39:34.680Z,91.24
2023-03-20T03:42:24.488Z,90.95
2023-03-20T03:45:12.490Z,90.90
2023-03-20T03:48:07.324Z,91.17
2023-03-20T03:50:48.322Z,91.08
2023-03-20T03:53:25.216Z,91.67
2023-03-20T03:56:02.657Z,91.04
2023-03-20T03:58:45.325Z,91.47
2023-03-20T04:01:18.165Z,91.36
2023-03-20T04:03:56.161Z,91.62
2023-03-20T04:06:27.976Z,91.15
2023-03-20T04:08:59.469Z,91.79
2023-03-20T04:11:31.215Z,91.27
2023-03-20T04:14:02.666Z,91.81
2023-03-20T04:16:34.087Z,91.85
2023-03-20T04:19:05.447Z,91.66
2023-03-20T04:21:36.980Z,91.61
2023-03-20T04:24:08.462Z,91.83
2023-03-20T04:26:40.479Z,91.48
2023-03-20T04:29:11.908Z,91.25
2023-03-20T04:31:43.258Z,91.19
2023-03-20T04:34:15.028Z,91.72
2023-03-20T04:36:47.326Z,90.88
2023-03-20T04:39:18.672Z,91.38
2023-03-20T04:41:52.062Z,90.87
2023-03-20T04:44:23.489Z,91.01
2023-03-20T04:46:54.939Z,91.17
2023-03-20T04:49:28.648Z,90.98
2023-03-20T04:52:00.312Z,91.36
2023-03-20T04:54:31.734Z,91.81
2023-03-20T04:57:03.359Z,91.00
2023-03-20T04:59:34.661Z,90.97
2023-03-20T05:02:06.221Z,91.08
2023-03-20T05:04:37.617Z,90.81
2023-03-20T05:07:09.117Z,91.19
2023-03-20T05:09:40.401Z,90.94
2023-03-20T05:12:11.846Z,90.87
2023-03-20T05:14:43.290Z,90.54
2023-03-20T05:17:14.629Z,90.78
2023-03-20T05:19:45.956Z,90.78
2023-03-20T05:22:18.319Z,90.75
2023-03-20T05:24:49.690Z,90.52
2023-03-20T05:27:21.102Z,90.35
2023-03-20T05:29:52.490Z,91.04
2023-03-20T05:32:23.983Z,90.84
2023-03-20T05:34:55.356Z,90.78
2023-03-20T05:37:27.035Z,90.87
2023-03-20T05:39:58.363Z,90.63
2023-03-20T05:42:29.650Z,90.87
2023-03-20T05:45:01.366Z,90.67
2023-03-20T05:47:32.899Z,90.86
2023-03-20T05:50:04.502Z,90.90
2023-03-20T05:52:36.290Z,90.67
2023-03-20T05:55:08.125Z,90.89
2023-03-20T05:57:39.459Z,91.03
2023-03-20T06:00:11.407Z,90.19
2023-03-20T06:02:43.980Z,91.20
2023-03-20T06:05:16.386Z,90.92
2023-03-20T06:07:47.733Z,90.59
2023-03-20T06:10:20.624Z,90.79
2023-03-20T06:12:52.013Z,90.86
2023-03-20T06:15:25.204Z,90.79
2023-03-20T06:17:57.010Z,90.25
2023-03-20T06:20:28.577Z,90.72
2023-03-20T06:23:00.298Z,90.79
2023-03-20T06:25:31.660Z,90.33
2023-03-20T06:28:03.014Z,90.34
2023-03-20T06:30:34.346Z,90.50
2023-03-20T06:33:09.600Z,90.21
2023-03-20T06:35:41.507Z,90.18
2023-03-20T06:38:12.849Z,90.13
2023-03-20T06:40:45.118Z,90.07
2023-03-20T06:43:16.746Z,89.76
2023-03-20T06:45:48.493Z,90.43
2023-03-20T06:48:22.535Z,90.32
2023-03-20T06:50:53.949Z,90.35
2023-03-20T06:53:25.962Z,90.00
2023-03-20T06:55:57.289Z,89.74
2023-03-20T06:58:28.595Z,89.89
2023-03-20T07:00:59.941Z,89.48
2023-03-20T07:03:31.368Z,89.67
2023-03-20T07:06:03.026Z,89.04
2023-03-20T07:08:35.267Z,89.28
2023-03-20T07:11:07.063Z,89.39
2023-03-20T07:13:38.612Z,89.70
2023-03-20T07:16:10.161Z,89.25
2023-03-20T07:18:41.644Z,88.93
2023-03-20T07:21:18.666Z,89.39
2023-03-20T07:23:49.978Z,88.69
2023-03-20T07:26:21.385Z,89.14
2023-03-20T07:28:52.962Z,89.23
2023-03-20T07:31:26.854Z,89.33
2023-03-20T07:33:58.572Z,88.76
2023-03-20T07:36:29.919Z,89.35
2023-03-20T07:39:01.210Z,89.24
2023-03-20T07:41:32.510Z,88.55
2023-03-20T07:44:04.076Z,88.83
2023-03-20T07:46:35.576Z,88.68
2023-03-20T07:49:07.564Z,88.58
2023-03-20T07:51:38.962Z,88.62
2023-03-20T07:54:10.396Z,88.62
2023-03-20T07:56:42.229Z,88.61
2023-03-20T07:59:13.800Z,88.69
2023-03-20T08:01:45.368Z,88.12
2023-03-20T08:04:19.456Z,88.40
2023-03-20T08:06:51.463Z,88.60
2023-03-20T08:09:23.128Z,88.48
2023-03-20T08:11:54.433Z,88.53
2023-03-20T08:14:25.798Z,88.36
2023-03-20T08:17:12.957Z,88.22
2023-03-20T08:19:45.908Z,88.38
2023-03-20T08:22:17.235Z,88.21
2023-03-20T08:24:48.536Z,88.00
2023-03-20T08:27:19.826Z,88.06
2023-03-20T08:29:51.587Z,88.19
2023-03-20T08:32:22.905Z,87.92
2023-03-20T08:34:57.191Z,87.70
2023-03-20T08:37:28.622Z,87.69
2023-03-20T08:40:00.290Z,87.70
2023-03-20T08:42:31.877Z,87.51
2023-03-20T08:45:03.382Z,87.17
2023-03-20T08:47:34.702Z,87.16
2023-03-20T08:50:07.333Z,87.19
2023-03-20T08:52:43.710Z,87.08
2023-03-20T08:55:16.341Z,87.50
2023-03-20T08:57:47.697Z,86.49
2023-03-20T09:00:20.481Z,86.89
2023-03-20T09:02:52.209Z,86.51
2023-03-20T09:05:23.887Z,86.55
2023-03-20T09:07:55.187Z,86.21
2023-03-20T09:10:26.481Z,86.11
2023-03-20T09:12:57.786Z,86.00
2023-03-20T09:15:29.273Z,85.81
2023-03-20T09:18:02.850Z,85.88
2023-03-20T09:20:35.272Z,85.60
2023-03-20T09:23:06.713Z,85.32
2023-03-20T09:25:38.269Z,84.71
2023-03-20T09:28:09.852Z,85.20
2023-03-20T09:30:43.312Z,84.99
2023-03-20T09:33:14.856Z,84.52
2023-03-20T09:35:46.914Z,85.11
2023-03-20T09:38:18.504Z,84.76
2023-03-20T09:40:49.802Z,84.35
2023-03-20T09:43:41.014Z,84.51
2023-03-20T09:46:49.327Z,83.98
2023-03-20T09:49:58.282Z,84.08
2023-03-20T09:52:37.969Z,84.21
2023-03-20T09:55:20.182Z,84.19
2023-03-20T09:57:58.494Z,83.73
2023-03-20T10:00:34.547Z,83.64
2023-03-20T10:03:18.037Z,82.77
2023-03-20T10:05:52.645Z,83.17
2023-03-20T10:08:29.380Z,82.70
2023-03-20T10:11:06.841Z,82.30
2023-03-20T10:13:38.188Z,82.05
2023-03-20T10:16:45.169Z,81.39
2023-03-20T10:19:31.183Z,82.09
2023-03-20T10:22:11.249Z,82.23
2023-03-20T10:24:49.780Z,81.72
2023-03-20T10:27:44.168Z,81.26
2023-03-20T10:30:27.533Z,81.59
2023-03-20T10:33:14.142Z,80.91
2023-03-20T10:36:21.554Z,80.89
2023-03-20T10:39:02.021Z,80.70
2023-03-20T10:41:38.134Z,80.08
2023-03-20T10:44:17.007Z,79.66
2023-03-20T10:46:52.767Z,79.66
2023-03-20T10:49:40.980Z,78.84
2023-03-20T10:52:18.050Z,78.94
2023-03-20T10:54:58.996Z,78.50
2023-03-20T10:57:38.054Z,78.76
2023-03-20T11:00:21.298Z,78.04
2023-03-20T11:02:52.900Z,78.36
2023-03-20T11:05:30.653Z,78.03
2023-03-20T11:08:08.136Z,78.33
2023-03-20T11:10:42.011Z,78.05
2023-03-20T11:13:30.940Z,78.05
2023-03-20T11:16:18.302Z,77.33
2023-03-20T11:18:52.209Z,77.75
2023-03-20T11:21:27.626Z,77.46
2023-03-20T11:23:59.009Z,77.74
2023-03-20T11:26:39.423Z,77.51
2023-03-20T11:29:28.961Z,77.20
2023-03-20T11:32:06.734Z,77.33
2023-03-20T11:34:40.854Z,76.88
2023-03-20T11:37:25.794Z,76.51
2023-03-20T11:40:14.137Z,76.49
2023-03-20T11:43:02.691Z,75.79
2023-03-20T11:45:43.428Z,75.75
2023-03-20T11:48:25.845Z,75.50
2023-03-20T11:51:03.664Z,74.49
2023-03-20T11:53:39.855Z,74.61
2023-03-20T11:56:12.750Z,74.29
2023-03-20T11:59:18.398Z,74.39
2023-03-20T12:01:55.665Z,74.94
2023-03-20T12:04:37.608Z,74.47
2023-03-20T12:07:36.995Z,74.08
2023-03-20T12:10:13.960Z,74.52
2023-03-20T12:12:57.843Z,74.00
2023-03-20T12:15:37.011Z,74.26
2023-03-20T12:18:21.828Z,73.69
2023-03-20T12:21:18.167Z,73.23
2023-03-20T12:24:22.540Z,72.95
2023-03-20T12:27:18.307Z,72.50
2023-03-20T12:29:58.821Z,72.86
2023-03-20T12:32:51.288Z,72.10
2023-03-20T12:35:37.551Z,71.89
2023-03-20T12:38:23.071Z,71.20
2023-03-20T12:41:03.418Z,71.05
2023-03-20T12:44:02.232Z,70.91
2023-03-20T12:46:51.443Z,70.66
2023-03-20T12:49:51.778Z,70.62
2023-03-20T12:52:50.693Z,70.71
2023-03-20T12:55:36.213Z,70.82
2023-03-20T12:58:35.290Z,69.75
2023-03-20T13:01:25.997Z,69.84
2023-03-20T13:04:23.522Z,69.41
2023-03-20T13:07:02.505Z,69.85
2023-03-20T13:10:01.958Z,68.77
2023-03-20T13:12:44.956Z,68.76
2023-03-20T13:15:37.459Z,68.28
2023-03-20T13:18:46.360Z,68.28
2023-03-20T13:21:56.567Z,68.10
2023-03-20T13:24:47.374Z,68.91
2023-03-20T13:27:30.893Z,68.38
2023-03-20T13:30:28.484Z,67.14
2023-03-20T13:33:16.356Z,67.50
2023-03-20T13:36:24.225Z,67.88
2023-03-20T13:39:28.586Z,67.78
2023-03-20T13:42:06.600Z,67.94
2023-03-20T13:44:41.110Z,67.81
2023-03-20T13:47:18.622Z,67.87
2023-03-20T13:50:04.911Z,67.47
2023-03-20T13:52:45.520Z,67.70
2023-03-20T13:55:23.736Z,68.03
2023-03-20T13:58:24.835Z,67.54
2023-03-20T14:01:05.579Z,67.96
2023-03-20T14:03:45.145Z,68.31
2023-03-20T14:06:39.320Z,68.00
2023-03-20T14:09:32.486Z,67.80
2023-03-20T14:12:11.212Z,67.99
2023-03-20T14:14:49.349Z,67.71
2023-03-20T14:17:26.500Z,67.85
2023-03-20T14:20:16.483Z,67.50
2023-03-20T14:22:49.022Z,67.92
2023-03-20T14:25:23.689Z,68.04
2023-03-20T14:28:10.044Z,67.74
2023-03-20T14:30:50.697Z,68.00
2023-03-20T14:33:23.479Z,67.92
2023-03-20T14:36:04.052Z,67.96
2023-03-20T14:38:44.414Z,67.98
2023-03-20T14:41:22.696Z,67.93
2023-03-20T14:44:08.953Z,67.70
2023-03-20T14:46:51.782Z,67.92
2023-03-20T14:49:34.651Z,67.95
2023-03-20T14:52:42.597Z,67.62
2023-03-20T14:55:28.758Z,68.13
2023-03-20T14:58:25.206Z,68.19
2023-03-20T15:01:03.185Z,67.93
2023-03-20T15:03:40.566Z,68.11
2023-03-20T15:06:12.243Z,68.03
2023-03-20T15:09:06.698Z,67.75
2023-03-20T15:11:42.484Z,67.81
2023-03-20T15:14:22.261Z,67.93
2023-03-20T15:16:59.341Z,68.20
2023-03-20T15:19:30.678Z,68.11
2023-03-20T15:22:02.056Z,68.03
2023-03-20T15:24:33.657Z,67.89
2023-03-20T15:27:05.257Z,67.79
2023-03-20T15:29:36.596Z,67.84
2023-03-20T15:32:14.953Z,67.63
2023-03-20T15:34:48.953Z,67.42
2023-03-20T15:37:23.673Z,67.33
2023-03-20T15:40:00.228Z,67.94
2023-03-20T15:42:31.870Z,66.98
2023-03-20T15:45:21.809Z,67.36
2023-03-20T15:48:00.459Z,67.46
2023-03-20T15:50:35.369Z,67.66
2023-03-20T15:53:11.111Z,67.49
2023-03-20T15:55:50.666Z,67.69
2023-03-20T15:58:22.439Z,67.81
2023-03-20T16:00:53.906Z,67.61
2023-03-20T16:03:27.813Z,67.62
2023-03-20T16:06:01.183Z,67.63
2023-03-20T16:08:34.034Z,67.38
2023-03-20T16:11:08.207Z,67.71
2023-03-20T16:13:51.562Z,67.68
2023-03-20T16:16:24.496Z,67.45
2023-03-20T16:18:58.117Z,67.62
2023-03-20T16:21:35.572Z,67.62
2023-03-20T16:24:11.324Z,67.54
2023-03-20T16:26:47.763Z,67.76
2023-03-20T16:29:22.821Z,67.85
2023-03-20T16:32:07.230Z,67.79
2023-03-20T16:34:39.597Z,67.91
2023-03-20T16:37:29.252Z,68.22
2023-03-20T16:40:19.196Z,68.17
2023-03-20T16:42:54.714Z,68.30
2023-03-20T16:45:34.852Z,68.30
2023-03-20T16:48:11.987Z,68.84
2023-03-20T16:50:45.284Z,68.93
2023-03-20T16:53:21.546Z,68.81
2023-03-20T16:55:54.852Z,69.40
2023-03-20T16:58:32.898Z,69.82
2023-03-20T17:01:08.527Z,69.80
2023-03-20T17:03:43.896Z,70.19
2023-03-20T17:06:21.600Z,70.47
2023-03-20T17:09:01.290Z,70.16
2023-03-20T17:11:36.279Z,70.63
2023-03-20T17:14:07.598Z,70.81
2023-03-20T17:16:40.208Z,71.18
2023-03-20T17:19:18.186Z,71.48
2023-03-20T17:21:50.047Z,71.35
2023-03-20T17:24:21.446Z,71.21
2023-03-20T17:26:55.879Z,71.66
2023-03-20T17:29:27.303Z,71.36
2023-03-20T17:31:58.736Z,71.82
2023-03-20T17:34:30.347Z,71.79
2023-03-20T17:37:03.307Z,72.17
2023-03-20T17:39:34.686Z,72.08
2023-03-20T17:42:18.687Z,71.91
2023-03-20T17:44:50.587Z,72.05
2023-03-20T17:47:24.053Z,71.89
2023-03-20T17:49:55.972Z,72.35
2023-03-20T17:52:28.425Z,72.25
2023-03-20T17:54:59.808Z,73.09
2023-03-20T17:57:33.236Z,72.60
2023-03-20T18:00:20.323Z,72.52
2023-03-20T18:02:51.736Z,72.86
2023-03-20T18:05:24.452Z,72.86
2023-03-20T18:07:55.848Z,72.67
2023-03-20T18:10:31.961Z,72.74
2023-03-20T18:13:03.341Z,72.99
2023-03-20T18:15:35.103Z,72.90
2023-03-20T18:18:08.729Z,73.27
2023-03-20T18:20:41.191Z,72.90
2023-03-20T18:23:14.109Z,73.14
2023-03-20T18:25:45.599Z,73.33
2023-03-20T18:28:22.675Z,73.35
2023-03-20T18:30:54.250Z,73.13
2023-03-20T18:33:27.633Z,73.79
2023-03-20T18:35:59.029Z,73.27
2023-03-20T18:38:30.660Z,73.62
2023-03-20T18:41:02.004Z,72.98
2023-03-20T18:43:33.342Z,73.42
2023-03-20T18:46:05.012Z,73.59
2023-03-20T18:48:36.358Z,74.36
2023-03-20T18:51:08.014Z,74.06
2023-03-20T18:53:41.029Z,74.82
2023-03-20T18:56:17.356Z,74.75
2023-03-20T18:58:49.313Z,75.05
2023-03-20T19:01:21.356Z,75.59
2023-03-20T19:03:53.713Z,75.25
2023-03-20T19:06:25.760Z,75.97
2023-03-20T19:08:57.303Z,76.37
2023-03-20T19:11:28.628Z,76.17
2023-03-20T19:13:59.961Z,77.06
2023-03-20T19:16:35.020Z,76.45
2023-03-20T19:19:08.298Z,77.07
2023-03-20T19:21:39.859Z,77.25
2023-03-20T19:24:11.297Z,77.18
2023-03-20T19:26:42.607Z,77.91
2023-03-20T19:29:14.526Z,78.64
2023-03-20T19:31:46.973Z,78.25
2023-03-20T19:34:51.850Z,78.58
2023-03-20T19:37:12.448Z,78.50
2023-03-20T19:39:43.782Z,79.03
2023-03-20T19:42:47.439Z,79.17
2023-03-20T19:45:07.714Z,78.80
2023-03-20T19:47:39.016Z,79.16
2023-03-20T19:50:33.933Z,79.65
2023-03-20T19:53:09.051Z,79.37
2023-03-20T19:55:42.897Z,79.64
2023-03-20T19:58:14.286Z,79.75
2023-03-20T20:01:00.996Z,79.90
2023-03-20T20:03:32.694Z,80.77
2023-03-20T20:06:04.749Z,80.26
2023-03-20T20:08:47.865Z,80.48
2023-03-20T20:11:21.184Z,80.39
2023-03-20T20:14:09.617Z,81.32
2023-03-20T20:16:43.177Z,81.07
2023-03-20T20:19:14.905Z,81.31
2023-03-20T20:24:37.767Z,81.40
2023-03-20T20:27:17.318Z,81.43
2023-03-20T20:29:53.500Z,81.46
2023-03-20T20:32:27.620Z,81.02
2023-03-20T20:40:48.476Z,81.66
2023-03-20T20:43:43.880Z,81.79
2023-03-20T20:46:11.233Z,82.12
2023-03-20T20:48:42.770Z,82.51
2023-03-20T20:51:14.147Z,82.29
2023-03-20T20:53:45.511Z,82.62
2023-03-20T20:56:16.833Z,83.17
2023-03-20T20:58:48.166Z,82.80
2023-03-20T21:01:19.535Z,83.14
2023-03-20T21:03:52.243Z,82.96
2023-03-20T21:06:44.019Z,83.19
2023-03-20T21:09:15.007Z,83.73
2023-03-20T21:11:47.413Z,83.87
2023-03-20T21:14:18.906Z,83.34
2023-03-20T21:16:50.312Z,84.03
2023-03-20T21:19:21.670Z,83.78
2023-03-20T21:21:53.064Z,84.40
2023-03-20T21:24:34.286Z,83.89
2023-03-20T21:27:10.890Z,84.24
2023-03-20T21:29:43.213Z,84.54
2023-03-20T21:32:17.362Z,84.01
2023-03-20T21:34:49.959Z,84.32
2023-03-20T21:38:28.383Z,84.61
2023-03-20T21:40:13.065Z,85.13
2023-03-20T21:42:46.024Z,85.14
2023-03-20T21:52:02.476Z,85.30
2023-03-20T22:00:36.273Z,85.96
2023-03-20T22:02:30.192Z,85.81
2023-03-20T22:05:50.394Z,85.87
2023-03-20T22:11:40.634Z,86.12
2023-03-20T22:14:40.655Z,86.40
2023-03-20T22:17:36.575Z,86.42
2023-03-20T22:23:09.426Z,86.63
2023-03-20T22:25:46.581Z,87.07
2023-03-20T22:31:34.652Z,87.39
2023-03-20T22:34:37.065Z,87.23
2023-03-20T22:42:49.563Z,87.42
2023-03-20T22:45:11.493Z,87.76
2023-03-20T22:47:42.999Z,87.98
2023-03-20T22:50:15.758Z,88.28
2023-03-20T22:52:49.594Z,88.29
2023-03-20T22:55:22.796Z,88.50
2023-03-20T22:58:06.508Z,88.66
2023-03-20T23:00:38.832Z,88.71
2023-03-20T23:03:25.710Z,88.94
2023-03-20T23:06:17.629Z,89.12
2023-03-20T23:08:55.259Z,89.67
2023-03-20T23:11:28.612Z,89.31
2023-03-20T23:14:00.976Z,89.47
2023-03-20T23:16:32.751Z,90.19
2023-03-20T23:19:04.168Z,90.17
2023-03-20T23:21:35.576Z,90.43
2023-03-20T23:24:08.264Z,90.80
2023-03-20T23:26:39.628Z,90.60
2023-03-20T23:29:11.658Z,90.76
2023-03-20T23:31:43.290Z,90.53
2023-03-20T23:34:17.401Z,90.85
2023-03-20T23:36:49.231Z,91.30
2023-03-20T23:39:20.846Z,90.87
2023-03-20T23:42:12.166Z,91.21
2023-03-20T23:44:49.887Z,91.27
2023-03-20T23:47:29.949Z,91.65
2023-03-20T23:50:09.691Z,91.60
2023-03-20T23:52:50.003Z,91.53
2023-03-20T23:55:28.700Z,91.59
2023-03-20T23:58:00.117Z,91.72
